Aplicació Alertes

Dades de l'estació automàtica Barcelona - Observatori Fabra

?
?
Resum diari 22:30 TU
Dades diàries de l'estació meteorològica
Temperatura mitjana 6.9 °C
Temperatura màxima 11.6 °C 13:26 TU
Temperatura mínima 3.7 °C 7:03 TU
Humitat relativa mitjana 38%
Precipitació acumulada 0.0 mm
Ratxa màxima del vent (10 m) 45.7 km/h - 323º 9:08 TU
Pressió atmosfèrica mitjana 1026.3 hPa
Irradiació solar global 9.1 MJ/m2

El tram horari està expressat en Temps Universal (TU). Cal sumar una hora en horari d'hivern i dues en horari d'estiu per passar a l'hora oficial.

Barcelona - Observatori Fabra

Metadades estació meteorol´gica
Municipi Barcelona
Comarca Barcelonès
Altitud 411 m
Data alta 03.11.1995
Estat actual Operativa
Dades de període
Període
TU
TM
°C
TX
°C
TN
°C
HRM
%
PPT
mm
VVM (10 m)
km/h
DVM (10 m)
graus
VVX (10 m)
km/h
PM
hPa
RS
W/m2
00:00 - 00:30 5.6 5.8 5.2 36 0.0 20.2 319 25.6 1023.3 0
00:30 - 01:00 5.5 5.6 5.3 37 0.0 22.7 319 28.8 1023.4 0
01:00 - 01:30 5.7 6.1 5.2 37 0.0 20.2 321 25.6 1023.7 0
01:30 - 02:00 5.9 6.2 5.2 36 0.0 20.2 325 30.6 1023.7 0
02:00 - 02:30 6.2 6.3 5.8 35 0.0 21.2 329 30.6 1023.5 0
02:30 - 03:00 5.6 5.9 5.2 38 0.0 26.3 323 35.3 1023.6 0
03:00 - 03:30 5.2 5.5 4.9 42 0.0 29.9 328 38.2 1023.6 0
03:30 - 04:00 4.5 5.1 4.2 48 0.0 31.0 325 39.2 1023.7 0
04:00 - 04:30 4.4 4.6 4.2 47 0.0 34.9 329 42.5 1023.9 0
04:30 - 05:00 4.6 4.7 4.5 44 0.0 32.4 334 37.8 1024.5 0
05:00 - 05:30 4.4 4.9 4.2 45 0.0 28.1 346 36.0 1025.1 0
05:30 - 06:00 5.1 5.4 4.7 37 0.0 24.1 2 30.6 1025.2 0
06:00 - 06:30 4.8 5.1 4.6 39 0.0 24.8 352 32.8 1025.4 0
06:30 - 07:00 4.3 5.1 3.8 45 0.0 27.4 332 36.0 1025.8 0
07:00 - 07:30 4.2 5.1 3.7 44 0.0 30.2 343 35.6 1026.2 9
07:30 - 08:00 5.3 5.7 4.9 37 0.0 27.7 357 36.0 1026.3 60
08:00 - 08:30 5.2 5.8 4.9 38 0.0 28.1 337 35.3 1026.5 133
08:30 - 09:00 4.9 5.2 4.6 40 0.0 34.2 325 41.0 1026.9 210
09:00 - 09:30 4.7 5.1 4.4 44 0.0 37.8 323 45.7 1027.4 281
09:30 - 10:00 5.5 6.5 4.8 39 0.0 30.6 326 40.3 1027.7 340
10:00 - 10:30 6.9 7.3 6.5 33 0.0 25.9 330 32.4 1027.6 390
10:30 - 11:00 7.4 7.7 7.2 37 0.0 23.8 319 32.4 1027.4 427
11:00 - 11:30 8.1 8.4 7.7 38 0.0 22.7 313 31.0 1027.0 450
11:30 - 12:00 8.9 9.4 8.5 39 0.0 16.2 291 33.1 1026.6 457
12:00 - 12:30 9.3 10.1 8.5 41 0.0 14.8 292 33.1 1026.2 450
12:30 - 13:00 10.1 10.5 9.4 41 0.0 9.4 278 24.8 1025.8 427
13:00 - 13:30 10.9 11.6 10.4 38 0.0 8.3 254 21.6 1025.5 393
13:30 - 14:00 11.0 11.3 10.7 38 0.0 8.3 260 22.7 1025.2 346
14:00 - 14:30 10.8 11.2 9.9 39 0.0 6.1 286 22.3 1025.2 284
14:30 - 15:00 10.1 10.4 9.5 38 0.0 9.4 313 29.2 1025.4 215
15:00 - 15:30 9.3 9.8 9.0 37 0.0 20.2 329 32.4 1025.8 141
15:30 - 16:00 9.2 9.4 9.0 35 0.0 15.8 325 29.9 1026.1 68
16:00 - 16:30 8.6 9.1 8.3 34 0.0 11.2 337 22.0 1026.5 13
16:30 - 17:00 8.0 8.3 7.8 32 0.0 18.4 326 27.4 1027.0 0
17:00 - 17:30 7.8 8.0 7.7 32 0.0 21.6 335 30.6 1027.1 0
17:30 - 18:00 7.3 7.6 7.0 33 0.0 18.7 323 25.9 1027.3 0
18:00 - 18:30 7.0 7.2 6.9 34 0.0 20.2 322 27.7 1027.7 0
18:30 - 19:00 7.3 7.6 6.8 34 0.0 21.6 331 27.7 1028.1 0
19:00 - 19:30 7.6 7.8 7.4 34 0.0 21.2 345 27.4 1028.5 0
19:30 - 20:00 7.7 7.8 7.5 34 0.0 18.0 358 22.7 1028.7 0
20:00 - 20:30 7.4 7.5 7.4 36 0.0 13.7 3 18.7 1029.0 0
20:30 - 21:00 7.4 7.6 7.2 37 0.0 11.9 1 20.5 1029.1 0
21:00 - 21:30 7.3 7.4 7.1 39 0.0 19.1 1 24.5 1028.9 0
21:30 - 22:00 7.4 7.5 7.2 43 0.0 22.7 341 26.6 1028.8 0
22:00 - 22:30 7.4 7.6 7.1 42 0.0 24.8 341 29.2 1029.2 0
22:30 - 23:00 7.5 7.7 7.4 41 0.0 24.8 352 29.9 1029.3 0

Les dades en taronja només han passat un control de qualitat automàtic. Resta pendent la seva validació definitiva.